Time;durP1;ratioP1;P1;durP2;ratioP2;P2;SDS_P1;SDS_P2;PMS_P1;PMS_P2;Temp;Humidity;BMP_temperature;BMP_pressure;BME280_temperature;BME280_humidity;BME280_pressure;Samples;Min_cycle;Max_cycle;Signal;HPM_P1;HPM_P2
2022/10/08 00:00:00;;;;;;;27.48;4.15;;;;;;;12.78;100.00;100387.25;4925602;29;20498;-73
2022/10/08 00:02:28;;;;;;;20.33;3.53;;;;;;;12.88;100.00;100399.22;4954384;29;20498;-73
2022/10/08 00:04:54;;;;;;;19.15;3.40;;;;;;;12.70;100.00;100375.69;4937195;29;20110;-72
2022/10/08 00:07:19;;;;;;;19.67;3.92;;;;;;;12.80;100.00;100406.78;4954508;29;20110;-73
2022/10/08 00:09:44;;;;;;;18.25;2.53;;;;;;;12.64;100.00;100376.59;4937339;29;20035;-73
2022/10/08 00:12:10;;;;;;;19.60;2.58;;;;;;;12.71;100.00;100403.53;4936892;29;20074;-73
2022/10/08 00:14:35;;;;;;;16.70;2.67;;;;;;;12.49;100.00;100378.84;4917832;29;20063;-73
2022/10/08 00:17:00;;;;;;;14.27;2.10;;;;;;;12.64;100.00;100414.38;4942938;29;20093;-73
2022/10/08 00:19:26;;;;;;;15.50;2.78;;;;;;;12.62;100.00;100396.78;4917719;29;20055;-73
2022/10/08 00:21:55;;;;;;;20.60;2.78;;;;;;;12.65;100.00;100405.25;4949853;29;20070;-73
2022/10/08 00:24:22;;;;;;;18.42;2.90;;;;;;;12.66;100.00;100409.59;4953705;28;20067;-73
2022/10/08 00:26:47;;;;;;;18.13;3.17;;;;;;;12.70;100.00;100418.91;4935731;29;20043;-73
2022/10/08 00:29:16;;;;;;;17.90;3.17;;;;;;;12.72;100.00;100423.28;4936497;29;20035;-73
2022/10/08 00:31:44;;;;;;;22.80;3.20;;;;;;;12.73;100.00;100406.00;4917602;29;20081;-73
2022/10/08 00:34:12;;;;;;;22.52;2.90;;;;;;;12.74;100.00;100399.56;4952020;29;20420;-73
2022/10/08 00:36:39;;;;;;;19.30;2.60;;;;;;;12.72;100.00;100391.69;4936164;29;20023;-73
2022/10/08 00:39:13;;;;;;;17.63;2.40;;;;;;;12.70;100.00;100397.31;4953299;29;20023;-73
2022/10/08 00:41:40;;;;;;;15.20;3.00;;;;;;;12.63;100.00;100385.75;4953461;28;20042;-73
2022/10/08 00:44:43;;;;;;;10.27;2.50;;;;;;;12.60;100.00;100391.59;4953195;29;20047;-73
2022/10/08 00:47:30;;;;;;;12.70;2.53;;;;;;;12.56;100.00;100386.88;4953245;29;20478;-73
2022/10/08 00:50:05;;;;;;;17.08;2.58;;;;;;;12.43;100.00;100374.31;4953494;29;20041;-73
2022/10/08 00:52:33;;;;;;;18.65;2.80;;;;;;;12.52;100.00;100393.78;4938709;29;20057;-73
2022/10/08 00:55:05;;;;;;;20.35;3.20;;;;;;;12.50;100.00;100401.25;4936188;29;20114;-73
2022/10/08 00:57:33;;;;;;;17.63;2.25;;;;;;;12.49;100.00;100415.78;4936048;29;20035;-73
2022/10/08 01:00:03;;;;;;;19.20;2.53;;;;;;;12.49;100.00;100410.41;4953138;28;20028;-73
2022/10/08 01:02:29;;;;;;;17.35;2.38;;;;;;;12.45;100.00;100404.63;4935372;29;20070;-73
2022/10/08 01:04:54;;;;;;;15.45;2.50;;;;;;;12.46;100.00;100409.78;4953111;28;20055;-73
2022/10/08 01:07:55;;;;;;;19.45;2.78;;;;;;;12.45;100.00;100408.13;4935867;29;20450;-73
2022/10/08 01:10:56;;;;;;;16.88;2.55;;;;;;;12.19;100.00;100371.41;4952852;29;20031;-73
2022/10/08 01:13:42;;;;;;;15.68;2.67;;;;;;;12.43;100.00;100393.22;4933211;29;20065;-73
2022/10/08 01:16:10;;;;;;;16.98;2.67;;;;;;;12.43;100.00;100396.72;4953016;28;20082;-73
2022/10/08 01:18:41;;;;;;;20.75;2.83;;;;;;;12.43;100.00;100391.34;4935912;29;20532;-73
2022/10/08 01:21:17;;;;;;;22.73;2.78;;;;;;;12.42;100.00;100387.00;4952949;29;20031;-72
2022/10/08 01:24:01;;;;;;;22.75;3.10;;;;;;;12.43;100.00;100385.94;4952612;29;20055;-72
2022/10/08 01:26:45;;;;;;;23.10;3.28;;;;;;;12.43;100.00;100387.81;4919830;29;20122;-73
2022/10/08 01:29:10;;;;;;;15.18;2.80;;;;;;;12.43;100.00;100390.50;4935673;29;20445;-73
2022/10/08 01:31:54;;;;;;;16.45;2.80;;;;;;;12.29;100.00;100367.41;4952914;28;20039;-73
2022/10/08 01:34:39;;;;;;;13.17;2.47;;;;;;;12.40;100.00;100399.06;4953019;29;20106;-72
2022/10/08 01:37:10;;;;;;;15.88;2.22;;;;;;;12.38;100.00;100393.03;4935676;29;20348;-72
2022/10/08 01:39:38;;;;;;;13.25;2.08;;;;;;;12.37;100.00;100396.78;4956035;28;20035;-73
2022/10/08 01:42:07;;;;;;;17.75;2.05;;;;;;;12.35;100.00;100398.88;4956382;28;20512;-73
2022/10/08 01:44:45;;;;;;;15.82;2.45;;;;;;;12.36;100.00;100403.25;4956221;29;20047;-73
2022/10/08 01:47:16;;;;;;;14.25;2.30;;;;;;;12.21;100.00;100385.50;4956566;29;20087;-74
2022/10/08 01:49:48;;;;;;;11.13;2.45;;;;;;;12.33;100.00;100406.38;4939253;29;20023;-73
2022/10/08 01:52:46;;;;;;;15.38;2.50;;;;;;;12.35;100.00;100404.25;4956267;29;20042;-73
2022/10/08 01:55:28;;;;;;;14.52;2.40;;;;;;;12.25;100.00;100398.53;4953460;29;20094;-73
2022/10/08 01:58:00;;;;;;;13.75;2.55;;;;;;;12.34;100.00;100413.41;4938901;29;20031;-73
2022/10/08 02:00:25;;;;;;;11.50;2.05;;;;;;;12.31;100.00;100411.16;4923424;29;20043;-73
2022/10/08 02:02:54;;;;;;;8.55;2.03;;;;;;;12.28;100.00;100404.31;4956280;29;20038;-73
2022/10/08 02:05:22;;;;;;;13.05;2.22;;;;;;;12.20;100.00;100405.44;4956209;29;20035;-73
2022/10/08 02:07:49;;;;;;;12.35;2.50;;;;;;;12.12;100.00;100389.53;4956044;29;20027;-73
2022/10/08 02:10:21;;;;;;;17.98;2.47;;;;;;;12.20;100.00;100396.53;4955861;29;20423;-73
2022/10/08 02:12:47;;;;;;;15.13;2.28;;;;;;;12.19;100.00;100403.78;4938524;29;20105;-73
2022/10/08 02:16:11;;;;;;;17.13;3.00;;;;;;;12.15;100.00;100413.38;4956022;29;20110;-73
2022/10/08 02:19:05;;;;;;;13.60;2.15;;;;;;;12.10;100.00;100412.38;4896609;29;20115;-73
2022/10/08 02:21:33;;;;;;;13.27;2.35;;;;;;;12.06;100.00;100413.84;4894274;29;20543;-73
2022/10/08 02:24:21;;;;;;;14.20;2.53;;;;;;;12.08;100.00;100412.56;4903664;29;20492;-73
2022/10/08 02:26:52;;;;;;;13.95;2.00;;;;;;;11.94;100.00;100381.34;4915345;29;20047;-73
2022/10/08 02:29:34;;;;;;;14.32;2.30;;;;;;;12.04;100.00;100411.34;4915278;29;20395;-73
2022/10/08 02:32:17;;;;;;;17.10;2.30;;;;;;;12.07;100.00;100402.84;4914966;29;20128;-72
2022/10/08 02:34:53;;;;;;;17.15;2.53;;;;;;;12.06;100.00;100395.78;4915130;29;20147;-72
2022/10/08 02:37:24;;;;;;;15.60;2.42;;;;;;;12.08;100.00;100404.47;4915194;29;20059;-72
2022/10/08 02:39:58;;;;;;;14.50;2.70;;;;;;;12.10;100.00;100406.97;4915341;29;20590;-72
2022/10/08 02:42:48;;;;;;;13.02;1.90;;;;;;;12.12;100.00;100408.41;4915111;29;20107;-72
2022/10/08 02:45:20;;;;;;;16.13;2.90;;;;;;;12.12;100.00;100411.09;4915070;29;20055;-72
2022/10/08 02:47:49;;;;;;;19.70;2.42;;;;;;;12.16;100.00;100414.19;4899164;29;20111;-72
2022/10/08 02:50:19;;;;;;;15.50;2.92;;;;;;;12.02;100.00;100399.97;4913889;29;20511;-72
2022/10/08 02:52:47;;;;;;;15.52;2.40;;;;;;;12.01;100.00;100395.63;4914568;29;20119;-72
2022/10/08 02:55:44;;;;;;;20.10;2.40;;;;;;;12.14;100.00;100414.41;4933883;29;20050;-72
2022/10/08 02:58:12;;;;;;;11.73;2.13;;;;;;;12.15;100.00;100418.75;4955061;28;20078;-72
2022/10/08 03:01:00;;;;;;;19.15;2.70;;;;;;;12.16;100.00;100416.88;4938007;29;20390;-72
2022/10/08 03:03:39;;;;;;;17.42;2.35;;;;;;;12.17;100.00;100429.31;4937839;29;20031;-72
2022/10/08 03:06:11;;;;;;;17.17;2.47;;;;;;;12.04;100.00;100405.97;4937740;29;20031;-72
2022/10/08 03:08:42;;;;;;;14.80;2.55;;;;;;;12.00;100.00;100391.28;4937707;29;20027;-72
2022/10/08 03:11:09;;;;;;;21.10;3.20;;;;;;;12.15;100.00;100426.84;4955148;29;20078;-72
2022/10/08 03:13:38;;;;;;;13.35;2.25;;;;;;;12.11;100.00;100428.31;4954968;29;20027;-72
2022/10/08 03:16:26;;;;;;;16.73;2.60;;;;;;;12.20;100.00;100423.50;4954637;29;20039;-72
2022/10/08 03:18:52;;;;;;;15.18;2.08;;;;;;;12.20;100.00;100426.19;4937315;29;20031;-72
2022/10/08 03:21:21;;;;;;;17.05;2.20;;;;;;;12.08;100.00;100407.16;4954716;29;20143;-72
2022/10/08 03:23:47;;;;;;;17.63;2.58;;;;;;;12.18;100.00;100426.38;4921928;29;20073;-72
2022/10/08 03:26:16;;;;;;;19.08;3.22;;;;;;;12.17;100.00;100422.06;4954522;29;20321;-72
2022/10/08 03:28:41;;;;;;;14.80;2.70;;;;;;;12.17;100.00;100422.06;4937260;29;20054;-72
2022/10/08 03:31:06;;;;;;;17.00;2.65;;;;;;;12.13;100.00;100417.31;4937499;29;20069;-72
2022/10/08 03:33:32;;;;;;;15.82;2.80;;;;;;;12.16;100.00;100422.28;4918475;29;20520;-72
2022/10/08 03:35:58;;;;;;;20.85;3.22;;;;;;;12.11;100.00;100414.81;4933722;29;20035;-72
2022/10/08 03:38:23;;;;;;;18.85;2.60;;;;;;;12.12;100.00;100423.75;4953922;28;20035;-72
2022/10/08 03:40:56;;;;;;;17.33;2.30;;;;;;;12.10;100.00;100429.38;4937388;29;20042;-72
2022/10/08 03:43:22;;;;;;;21.23;3.25;;;;;;;12.08;100.00;100420.66;4936973;29;20031;-72
2022/10/08 03:45:51;;;;;;;17.65;2.45;;;;;;;12.07;100.00;100421.72;4954121;29;20046;-73
2022/10/08 03:48:17;;;;;;;20.15;2.50;;;;;;;12.02;100.00;100426.94;4936435;29;20039;-73
2022/10/08 03:51:02;;;;;;;19.88;2.53;;;;;;;12.03;100.00;100422.38;4937112;29;20026;-73
2022/10/08 03:53:31;;;;;;;18.92;2.42;;;;;;;11.95;100.00;100418.06;4937005;28;20035;-73
2022/10/08 03:56:03;;;;;;;18.17;2.35;;;;;;;11.90;100.00;100401.72;4954287;29;20054;-73
2022/10/08 03:58:29;;;;;;;23.30;3.00;;;;;;;11.98;100.00;100421.13;4921547;29;20085;-72
2022/10/08 04:00:59;;;;;;;18.77;2.83;;;;;;;11.97;100.00;100413.28;4953959;28;20031;-72
2022/10/08 04:03:26;;;;;;;18.45;2.85;;;;;;;11.88;100.00;100411.88;4953072;29;20179;-72
2022/10/08 04:05:52;;;;;;;24.17;2.90;;;;;;;11.93;100.00;100417.47;4954025;29;20034;-73
2022/10/08 04:08:17;;;;;;;21.35;2.92;;;;;;;11.77;100.00;100399.91;4953697;29;20181;-73
2022/10/08 04:10:42;;;;;;;18.90;2.75;;;;;;;11.89;100.00;100427.84;4953737;29;20028;-73
2022/10/08 04:13:08;;;;;;;26.33;3.78;;;;;;;11.89;100.00;100427.03;4936575;29;20054;-73
2022/10/08 04:15:33;;;;;;;22.05;3.38;;;;;;;11.87;100.00;100429.09;4953551;29;20043;-72
2022/10/08 04:17:59;;;;;;;23.73;2.80;;;;;;;11.84;100.00;100430.38;4936318;29;20039;-72
2022/10/08 04:20:24;;;;;;;26.08;3.17;;;;;;;11.75;100.00;100423.53;4920522;29;20031;-72
2022/10/08 04:22:50;;;;;;;19.85;3.08;;;;;;;11.73;100.00;100429.16;4953793;29;20035;-72
2022/10/08 04:25:15;;;;;;;16.63;3.10;;;;;;;11.79;100.00;100442.78;4917390;29;20054;-72
2022/10/08 04:27:40;;;;;;;27.48;3.00;;;;;;;11.76;100.00;100444.91;4947298;29;20038;-72
2022/10/08 04:30:06;;;;;;;20.23;2.72;;;;;;;11.74;100.00;100438.06;4936238;29;20557;-72
2022/10/08 04:32:32;;;;;;;25.70;3.30;;;;;;;11.69;100.00;100452.19;4936325;29;20031;-72
2022/10/08 04:34:57;;;;;;;23.33;2.83;;;;;;;11.70;100.00;100455.72;4953674;28;20042;-72
2022/10/08 04:37:23;;;;;;;19.73;2.85;;;;;;;11.67;100.00;100459.66;4920062;29;20051;-72
2022/10/08 04:39:48;;;;;;;30.58;3.75;;;;;;;11.65;100.00;100464.44;4953299;29;20631;-72
2022/10/08 04:42:14;;;;;;;24.02;2.88;;;;;;;11.62;100.00;100459.50;4935980;29;20039;-72
2022/10/08 04:44:39;;;;;;;21.90;3.38;;;;;;;11.59;100.00;100454.53;4917152;29;20086;-72
2022/10/08 04:47:05;;;;;;;26.27;3.10;;;;;;;11.44;100.00;100432.41;4925284;29;20046;-72
2022/10/08 04:49:30;;;;;;;23.33;3.40;;;;;;;11.62;100.00;100462.19;4920187;29;20118;-73
2022/10/08 04:51:55;;;;;;;22.80;2.95;;;;;;;11.60;100.00;100466.13;4936183;29;20043;-72
2022/10/08 04:54:21;;;;;;;24.85;3.60;;;;;;;11.47;100.00;100445.44;4936166;28;20046;-73
2022/10/08 04:56:46;;;;;;;25.48;3.08;;;;;;;11.64;100.00;100470.03;4936351;29;20077;-73
2022/10/08 04:59:11;;;;;;;27.77;3.47;;;;;;;11.63;100.00;100466.53;4953082;29;20038;-73
2022/10/08 05:01:37;;;;;;;21.00;3.15;;;;;;;11.61;100.00;100471.28;4935581;29;20042;-73
2022/10/08 05:04:02;;;;;;;18.42;2.95;;;;;;;11.44;100.00;100443.19;4953022;29;20027;-72
2022/10/08 05:06:29;;;;;;;27.08;3.53;;;;;;;11.60;100.00;100468.81;4935525;29;20035;-72
2022/10/08 05:08:57;;;;;;;19.55;2.65;;;;;;;11.58;100.00;100479.81;4936062;28;20474;-72
2022/10/08 05:11:24;;;;;;;21.52;2.88;;;;;;;11.56;100.00;100473.81;4953024;29;20041;-73
2022/10/08 05:13:51;;;;;;;21.25;3.45;;;;;;;11.57;100.00;100478.16;4935664;29;20094;-73
2022/10/08 05:16:17;;;;;;;22.98;3.17;;;;;;;11.55;100.00;100474.00;4935806;29;20042;-72
2022/10/08 05:18:43;;;;;;;21.25;3.20;;;;;;;11.54;100.00;100478.59;4953068;28;20054;-74
2022/10/08 05:21:14;;;;;;;25.33;4.00;;;;;;;11.52;100.00;100480.66;4952818;29;20031;-73
2022/10/08 05:23:41;;;;;;;28.20;3.75;;;;;;;11.51;100.00;100479.00;4935608;29;20035;-73
2022/10/08 05:26:19;;;;;;;23.73;3.45;;;;;;;11.51;100.00;100484.41;4935938;29;20031;-73
2022/10/08 05:29:05;;;;;;;26.55;2.83;;;;;;;11.50;100.00;100482.75;4935511;29;20038;-73
2022/10/08 05:31:32;;;;;;;25.40;3.70;;;;;;;11.46;100.00;100481.53;4917959;29;20143;-73
2022/10/08 05:33:59;;;;;;;28.85;3.60;;;;;;;11.48;100.00;100482.13;4915631;29;20043;-73
2022/10/08 05:36:27;;;;;;;26.20;3.50;;;;;;;11.50;100.00;100486.28;4915335;29;22725;-72
2022/10/08 05:38:55;;;;;;;23.27;3.50;;;;;;;11.48;100.00;100482.94;4915570;29;20075;-73
2022/10/08 05:41:29;;;;;;;23.90;4.05;;;;;;;11.47;100.00;100491.25;4931710;29;20935;-73
2022/10/08 05:43:56;;;;;;;23.83;3.28;;;;;;;11.47;100.00;100480.47;4931490;29;20608;-74
2022/10/08 05:46:24;;;;;;;32.70;3.70;;;;;;;11.34;100.00;100451.72;4914510;29;20059;-73
2022/10/08 05:48:54;;;;;;;29.90;4.40;;;;;;;11.48;100.00;100482.13;4918127;29;20490;-73
2022/10/08 05:51:20;;;;;;;27.23;3.25;;;;;;;11.43;100.00;100465.78;4931377;29;20102;-73
2022/10/08 05:53:48;;;;;;;26.00;3.15;;;;;;;11.51;100.00;100487.09;4931353;29;20590;-74
2022/10/08 05:56:16;;;;;;;24.83;3.38;;;;;;;11.53;100.00;100490.41;4931283;29;20131;-73
2022/10/08 05:58:42;;;;;;;31.88;4.35;;;;;;;11.54;100.00;100489.34;4930627;29;20413;-73
2022/10/08 06:01:16;;;;;;;23.25;3.40;;;;;;;11.55;100.00;100490.19;4931219;29;20039;-72
2022/10/08 06:03:42;;;;;;;29.53;3.70;;;;;;;11.60;100.00;100495.78;4912230;29;20639;-72
2022/10/08 06:06:10;;;;;;;26.67;3.35;;;;;;;11.58;100.00;100495.16;4928287;29;20058;-72
2022/10/08 06:08:37;;;;;;;28.45;3.50;;;;;;;11.69;100.00;100498.03;4938738;29;20039;-70
2022/10/08 06:11:04;;;;;;;32.38;4.90;;;;;;;11.73;100.00;100498.41;4935465;29;20027;-72
2022/10/08 06:13:30;;;;;;;28.08;4.05;;;;;;;11.79;100.00;100502.09;4935196;29;20031;-73
2022/10/08 06:16:00;;;;;;;31.30;4.22;;;;;;;11.85;100.00;100503.97;4935491;29;20035;-73
2022/10/08 06:18:46;;;;;;;29.98;3.67;;;;;;;11.89;100.00;100506.03;4952763;29;20050;-73
2022/10/08 06:21:14;;;;;;;22.40;3.13;;;;;;;11.96;100.00;100504.13;4893418;29;20575;-73
2022/10/08 06:23:45;;;;;;;26.00;3.70;;;;;;;12.02;100.00;100518.63;4877613;29;20107;-72
2022/10/08 06:26:11;;;;;;;21.08;2.88;;;;;;;12.08;100.00;100517.75;4895299;29;20040;-72
2022/10/08 06:28:37;;;;;;;25.85;3.08;;;;;;;12.13;100.00;100520.63;4896665;29;20123;-72
2022/10/08 06:31:03;;;;;;;35.42;3.95;;;;;;;12.19;100.00;100527.88;4880810;29;20040;-74
2022/10/08 06:33:29;;;;;;;29.02;3.97;;;;;;;12.00;100.00;100482.97;4896311;29;20752;-74
2022/10/08 06:35:55;;;;;;;25.45;3.20;;;;;;;12.30;100.00;100525.53;4881081;29;20044;-75
2022/10/08 06:38:21;;;;;;;21.90;3.22;;;;;;;12.35;100.00;100531.94;4896274;29;20075;-76
2022/10/08 06:40:47;;;;;;;22.92;3.35;;;;;;;12.38;100.00;100530.66;4880675;29;20053;-73
2022/10/08 06:43:14;;;;;;;28.27;4.10;;;;;;;12.40;100.00;100524.00;4875057;29;20076;-75
2022/10/08 06:45:41;;;;;;;27.77;4.07;;;;;;;12.46;100.00;100533.09;4880547;29;20059;-77
2022/10/08 06:48:07;;;;;;;20.58;2.97;;;;;;;12.51;100.00;100532.44;4880569;29;20036;-74
2022/10/08 06:50:35;;;;;;;21.33;3.13;;;;;;;12.60;100.00;100537.34;4895796;29;20043;-72
2022/10/08 06:53:01;;;;;;;24.17;3.53;;;;;;;12.67;100.00;100540.81;4929006;29;20510;-74
2022/10/08 06:55:26;;;;;;;22.10;3.67;;;;;;;12.76;100.00;100541.38;4938310;29;20476;-75
2022/10/08 06:57:52;;;;;;;22.50;3.75;;;;;;;12.88;100.00;100539.63;4955314;28;20066;-76
2022/10/08 07:00:18;;;;;;;20.17;3.70;;;;;;;13.11;100.00;100535.47;4922230;29;20053;-76
2022/10/08 07:02:44;;;;;;;21.10;3.40;;;;;;;13.28;100.00;100543.88;4938460;29;20090;-76
2022/10/08 07:05:09;;;;;;;21.60;3.00;;;;;;;13.42;100.00;100549.97;4955326;29;20035;-77
2022/10/08 07:07:35;;;;;;;24.95;3.40;;;;;;;13.45;100.00;100546.81;4938606;29;20035;-74
2022/10/08 07:10:02;;;;;;;20.08;3.13;;;;;;;13.61;100.00;100552.44;4955227;29;20039;-74
2022/10/08 07:12:28;;;;;;;25.38;3.25;;;;;;;13.70;100.00;100552.13;4922445;29;20043;-74
2022/10/08 07:14:53;;;;;;;25.55;3.28;;;;;;;13.76;100.00;100553.94;4937878;29;20049;-74
2022/10/08 07:17:19;;;;;;;24.65;4.50;;;;;;;13.84;100.00;100564.44;4937948;29;20043;-73
2022/10/08 07:19:44;;;;;;;25.27;3.85;;;;;;;13.86;100.00;100552.34;4954739;29;20043;-74
2022/10/08 07:22:10;;;;;;;26.27;4.00;;;;;;;13.82;100.00;100553.84;4937808;29;20043;-75
2022/10/08 07:24:35;;;;;;;14.15;2.78;;;;;;;13.82;100.00;100559.28;4937854;29;20055;-74
2022/10/08 07:27:00;;;;;;;25.20;2.83;;;;;;;13.92;100.00;100555.22;4937572;29;20101;-73
2022/10/08 07:29:26;;;;;;;21.95;3.65;;;;;;;14.01;100.00;100565.50;4937557;29;20115;-73
2022/10/08 07:31:52;;;;;;;29.70;4.25;;;;;;;14.13;100.00;100541.19;4937266;29;20046;-73
2022/10/08 07:34:18;;;;;;;20.63;3.40;;;;;;;14.25;100.00;100557.47;4954377;28;20038;-73
2022/10/08 07:36:43;;;;;;;29.27;3.83;;;;;;;14.36;100.00;100574.81;4953963;28;20031;-73
2022/10/08 07:39:15;;;;;;;21.70;3.75;;;;;;;14.45;100.00;100568.84;4921055;29;20035;-73
2022/10/08 07:41:42;;;;;;;20.05;2.80;;;;;;;14.44;100.00;100564.50;4954710;28;20449;-73
2022/10/08 07:44:10;;;;;;;26.10;4.78;;;;;;;14.45;100.00;100568.03;4937302;29;20043;-73
2022/10/08 07:46:36;;;;;;;17.25;3.03;;;;;;;14.57;100.00;100568.94;4938776;29;20050;-73
2022/10/08 07:49:03;;;;;;;22.02;3.67;;;;;;;14.26;100.00;100546.41;4954139;29;20036;-74
2022/10/08 07:51:30;;;;;;;16.23;2.97;;;;;;;14.24;100.00;100591.03;4921153;29;20046;-73
2022/10/08 07:54:01;;;;;;;16.88;2.80;;;;;;;14.09;100.00;100591.41;4954252;29;20058;-73
2022/10/08 07:56:27;;;;;;;20.00;2.85;;;;;;;14.02;100.00;100599.59;4936828;29;20486;-73
2022/10/08 07:58:52;;;;;;;19.00;3.22;;;;;;;13.99;100.00;100583.00;4937061;29;20031;-73
2022/10/08 08:01:20;;;;;;;21.77;3.28;;;;;;;13.99;100.00;100591.13;4917648;29;20043;-72
2022/10/08 08:03:52;;;;;;;14.75;2.40;;;;;;;13.90;100.00;100547.31;4947708;29;20046;-73
2022/10/08 08:06:18;;;;;;;16.65;2.85;;;;;;;14.10;100.00;100596.59;4936830;29;20042;-73
2022/10/08 08:08:44;;;;;;;17.30;2.92;;;;;;;13.95;100.00;100604.28;4953974;29;20031;-73
2022/10/08 08:11:13;;;;;;;14.88;2.70;;;;;;;13.70;100.00;100606.22;4953870;29;20570;-73
2022/10/08 08:13:39;;;;;;;17.38;2.90;;;;;;;13.49;100.00;100597.50;4936758;29;20035;-74
2022/10/08 08:16:12;;;;;;;20.55;3.03;;;;;;;13.15;100.00;100596.94;4936651;29;20035;-73
2022/10/08 08:18:56;;;;;;;24.05;3.88;;;;;;;13.01;100.00;100597.25;4921491;29;20412;-73
2022/10/08 08:21:26;;;;;;;23.33;4.32;;;;;;;12.82;100.00;100594.50;4953637;29;20040;-73
2022/10/08 08:23:54;;;;;;;16.38;2.33;;;;;;;12.68;100.00;100601.88;4936327;29;20125;-73
2022/10/08 08:26:25;;;;;;;16.40;2.72;;;;;;;12.39;100.00;100583.59;4936373;29;20248;-74
2022/10/08 08:28:55;;;;;;;16.77;2.60;;;;;;;12.46;100.00;100605.97;4936439;28;20482;-74
2022/10/08 08:31:29;;;;;;;20.52;2.67;;;;;;;12.39;100.00;100600.59;4953700;29;20031;-74
2022/10/08 08:33:58;;;;;;;14.43;2.15;;;;;;;12.37;100.00;100596.44;4933262;29;20383;-75
2022/10/08 08:36:29;;;;;;;15.02;2.13;;;;;;;12.31;100.00;100598.13;4954032;29;20035;-75
2022/10/08 08:38:55;;;;;;;15.45;2.60;;;;;;;12.27;100.00;100607.72;4953805;29;20027;-74
2022/10/08 08:41:55;;;;;;;23.20;3.10;;;;;;;12.25;100.00;100608.97;4936489;28;20071;-74
2022/10/08 08:44:33;;;;;;;14.38;2.10;;;;;;;12.25;100.00;100607.13;4953547;29;20031;-74
2022/10/08 08:47:08;;;;;;;15.82;2.30;;;;;;;12.23;100.00;100603.78;4953580;28;20075;-73
2022/10/08 08:49:44;;;;;;;25.48;2.88;;;;;;;12.17;100.00;100596.56;4945837;29;20418;-72
2022/10/08 08:52:16;;;;;;;16.73;3.00;;;;;;;12.25;100.00;100603.56;4932937;29;20023;-72
2022/10/08 08:54:45;;;;;;;22.73;2.85;;;;;;;12.24;100.00;100605.44;4922526;29;20166;-72
2022/10/08 08:57:10;;;;;;;13.27;1.88;;;;;;;12.24;100.00;100602.75;4937896;29;20547;-72
2022/10/08 08:59:41;;;;;;;20.13;2.10;;;;;;;12.25;100.00;100600.88;4967115;28;20030;-73
2022/10/08 09:02:35;;;;;;;12.48;1.52;;;;;;;12.26;100.00;100591.75;4965751;29;20043;-74
2022/10/08 09:05:10;;;;;;;14.98;1.85;;;;;;;12.17;100.00;100589.28;4933684;29;20040;-83
2022/10/08 09:07:44;;;;;;;8.68;1.17;;;;;;;12.28;100.00;100603.97;4934259;29;20054;-71
2022/10/08 09:10:20;;;;;;;11.00;1.35;;;;;;;12.29;100.00;100607.50;4932248;29;20032;-71
2022/10/08 09:12:46;;;;;;;6.95;0.80;;;;;;;12.27;100.00;100614.97;4917987;29;20036;-71
2022/10/08 09:15:17;;;;;;;7.43;0.82;;;;;;;12.23;100.00;100612.72;4913551;29;20060;-71
2022/10/08 09:17:44;;;;;;;6.47;0.80;;;;;;;12.28;100.00;100622.03;4925824;29;20444;-71
2022/10/08 09:20:22;;;;;;;9.57;1.23;;;;;;;12.39;100.00;100618.66;4913373;29;20046;-70
2022/10/08 09:22:49;;;;;;;7.43;1.30;;;;;;;12.40;100.00;100623.00;4922014;29;20057;-73
2022/10/08 09:25:21;;;;;;;12.10;1.92;;;;;;;12.45;100.00;100626.72;4936345;29;20055;-71
2022/10/08 09:27:52;;;;;;;7.57;1.42;;;;;;;12.60;100.00;100637.22;4921928;29;20131;-71
2022/10/08 09:30:43;;;;;;;4.88;1.20;;;;;;;12.73;100.00;100638.19;4937487;29;20067;-71
2022/10/08 09:33:12;;;;;;;9.02;1.20;;;;;;;12.85;100.00;100644.56;4938075;29;20035;-71
2022/10/08 09:35:43;;;;;;;7.93;1.15;;;;;;;13.05;100.00;100642.53;4942550;29;20058;-72
2022/10/08 09:38:25;;;;;;;7.60;1.40;;;;;;;13.19;100.00;100637.03;4935726;29;20037;-72
2022/10/08 09:41:15;;;;;;;9.35;1.33;;;;;;;13.30;100.00;100655.25;4937807;29;20402;-73
2022/10/08 09:43:40;;;;;;;10.15;1.38;;;;;;;13.25;100.00;100626.19;4933663;29;20035;-71
2022/10/08 09:46:25;;;;;;;5.75;1.00;;;;;;;13.48;100.00;100655.31;4918187;29;20098;-72
2022/10/08 09:48:51;;;;;;;6.03;0.80;;;;;;;13.33;100.00;100642.13;4937863;29;20079;-72
2022/10/08 09:51:17;;;;;;;8.32;0.95;;;;;;;13.15;100.00;100626.66;4934837;29;20035;-72
2022/10/08 09:53:53;;;;;;;4.13;1.05;;;;;;;13.22;100.00;100656.34;4951878;28;20055;-72
2022/10/08 09:56:28;;;;;;;5.40;1.05;;;;;;;13.12;100.00;100656.81;4927014;29;20042;-72
2022/10/08 09:59:00;;;;;;;6.85;1.17;;;;;;;13.06;100.00;100662.28;4953293;28;20031;-71
2022/10/08 10:01:46;;;;;;;6.43;0.85;;;;;;;12.99;99.61;100659.63;4939148;29;20055;-72
2022/10/08 10:04:36;;;;;;;4.13;0.80;;;;;;;12.78;99.69;100636.50;4896585;29;20153;-72
2022/10/08 10:07:02;;;;;;;3.92;0.63;;;;;;;12.98;99.40;100674.19;4896511;29;20037;-72
2022/10/08 10:09:46;;;;;;;4.85;0.70;;;;;;;12.98;98.77;100676.88;4864757;29;20497;-72
2022/10/08 10:12:26;;;;;;;6.97;1.00;;;;;;;13.01;98.50;100679.13;4895896;29;20526;-72
2022/10/08 10:14:58;;;;;;;6.88;0.93;;;;;;;12.82;98.92;100656.63;4896829;29;20048;-71
2022/10/08 10:17:29;;;;;;;5.47;1.38;;;;;;;12.99;100.00;100685.81;4881410;29;20043;-72
2022/10/08 10:20:00;;;;;;;9.15;1.55;;;;;;;12.94;100.00;100681.03;4896882;29;20040;-72
2022/10/08 10:22:58;;;;;;;10.73;1.48;;;;;;;12.73;100.00;100638.19;4896676;29;20090;-71
2022/10/08 10:25:26;;;;;;;8.98;1.33;;;;;;;13.12;100.00;100691.94;4866688;29;20036;-72
2022/10/08 10:27:58;;;;;;;10.05;1.27;;;;;;;13.13;100.00;100688.19;4894480;29;20056;-72
2022/10/08 10:30:24;;;;;;;11.15;1.30;;;;;;;13.28;100.00;100684.38;4877183;29;20037;-73
2022/10/08 10:33:14;;;;;;;9.98;1.42;;;;;;;13.56;100.00;100684.75;4875281;29;20572;-73
2022/10/08 10:35:54;;;;;;;9.13;1.20;;;;;;;13.65;100.00;100693.41;4927123;29;20047;-72
2022/10/08 10:38:27;;;;;;;8.00;1.10;;;;;;;13.63;100.00;100682.81;4953449;29;20032;-73
2022/10/08 10:40:55;;;;;;;11.55;1.50;;;;;;;13.79;100.00;100686.81;4955604;29;20019;-77
2022/10/08 10:43:32;;;;;;;8.82;1.52;;;;;;;13.89;100.00;100690.91;4955752;29;20046;-73
2022/10/08 10:46:13;;;;;;;9.85;1.40;;;;;;;13.87;100.00;100666.78;4938541;29;20168;-74
2022/10/08 10:48:39;;;;;;;8.13;1.48;;;;;;;13.91;99.16;100659.88;4919523;29;20035;-74
2022/10/08 10:51:13;;;;;;;6.47;1.10;;;;;;;14.05;97.32;100676.78;4903331;29;20418;-75
2022/10/08 10:54:03;;;;;;;5.82;1.02;;;;;;;14.20;96.67;100681.81;4948025;29;20200;-75
2022/10/08 10:56:37;;;;;;;7.43;1.25;;;;;;;14.37;95.24;100682.03;4958825;29;20050;-76
2022/10/08 10:59:09;;;;;;;12.15;1.48;;;;;;;14.37;94.38;100676.59;4940664;29;20035;-75
2022/10/08 11:01:51;;;;;;;8.68;1.10;;;;;;;14.15;93.88;100678.97;4938540;29;20141;-76
2022/10/08 11:04:22;;;;;;;6.38;1.20;;;;;;;13.78;96.41;100649.19;4938052;29;20059;-76
2022/10/08 11:07:18;;;;;;;6.80;1.58;;;;;;;13.80;99.27;100687.66;4938682;29;20501;-75
2022/10/08 11:09:55;;;;;;;12.45;1.55;;;;;;;13.67;100.00;100685.91;4938115;29;20118;-79
2022/10/08 11:12:55;;;;;;;8.40;1.25;;;;;;;13.61;100.00;100684.94;4954587;28;20046;-74
2022/10/08 11:15:46;;;;;;;9.50;1.17;;;;;;;13.75;100.00;100690.22;4955137;29;20043;-74
2022/10/08 11:18:30;;;;;;;3.38;0.75;;;;;;;13.69;98.16;100696.50;4954963;29;20035;-73
2022/10/08 11:21:04;;;;;;;2.72;0.50;;;;;;;13.63;91.51;100696.34;4941530;29;20026;-75
2022/10/08 11:24:00;;;;;;;6.57;0.90;;;;;;;13.59;90.99;100697.00;4954861;29;20043;-73
2022/10/08 11:26:32;;;;;;;9.07;0.90;;;;;;;13.49;90.99;100675.06;4898300;29;20047;-75
2022/10/08 11:29:22;;;;;;;3.15;0.52;;;;;;;13.48;89.86;100700.44;4952214;29;20067;-76
2022/10/08 11:31:50;;;;;;;6.10;0.65;;;;;;;13.51;88.84;100695.41;4935550;29;20069;-72